Stations météo

Publicité
Wisley, Grande-Bretagne (99080): Température de l'air & dewpoint: 13.09.2020 09:00:00 - 19.09.2020 09:00:00 (BST)Wisley, Grande-Bretagne (99080): Température de l'air -20cm: 13.09.2020 09:00:00 - 19.09.2020 09:00:00 (BST)Wisley, Grande-Bretagne (99080): Vitesse du vent: 13.09.2020 09:00:00 - 19.09.2020 09:00:00 (BST)Wisley, Grande-Bretagne (99080): Direction du vent: 13.09.2020 09:00:00 - 19.09.2020 09:00:00 (BST)Wisley, Grande-Bretagne (99080): Quantités de précipitations: 13.09.2020 09:00:00 - 19.09.2020 09:00:00 (BST)
Date & Time tt [°C] td [°C] tt -20cm [°C] ff [km/h] ff [knt] dd rr [mm]
19.09.2020 09:00:00 16,0 12,9 - 8 4 NNE 0,0
19.09.2020 08:00:00 14,2 12,2 - 8 4 NNE 0,0
19.09.2020 07:00:00 12,9 11,6 - 9 5 NNE 0,0
19.09.2020 06:00:00 12,0 11,6 - 5 3 NNE 0,0
19.09.2020 05:00:00 10,8 10,5 - 5 3 NNE 0,0
19.09.2020 04:00:00 10,9 10,3 - 4 2 N 0,0
19.09.2020 03:00:00 11,4 10,7 - 5 3 NNE 0,0
19.09.2020 02:00:00 11,7 10,2 - 2 1 NNE 0,0
19.09.2020 01:00:00 13,0 10,7 - 4 2 NNE 0,0
19.09.2020 00:00:00 13,5 10,9 - 4 2 ENE 0,0
18.09.2020 23:00:00 13,9 10,8 - 4 2 NNE 0,0
18.09.2020 22:00:00 15,6 11,2 - 9 5 ENE 0,0
18.09.2020 21:00:00 16,1 11,4 - 11 6 ENE 0,0
18.09.2020 20:00:00 16,4 10,9 - 11 6 ENE 0,0
18.09.2020 19:00:00 17,3 9,1 - 11 6 ENE 0,0
18.09.2020 18:00:00 18,7 8,7 - 11 6 ENE 0,0
18.09.2020 17:00:00 18,9 7,0 - 15 8 E 0,0
18.09.2020 16:00:00 20,1 8,2 - 13 7 NE 0,0
18.09.2020 15:00:00 19,9 7,8 - 16 9 E 0,0
18.09.2020 14:00:00 20,2 8,9 - 15 8 ENE 0,0
18.09.2020 13:00:00 19,7 8,8 - 13 7 ENE 0,0
18.09.2020 12:00:00 19,1 7,8 - 18 10 ENE 0,0
18.09.2020 11:00:00 17,7 11,4 - 11 6 ENE 0,0
18.09.2020 10:00:00 15,8 11,1 16,9 8 4 NNE 0,0
18.09.2020 09:00:00 13,0 11,3 - 4 2 ENE 0,0
18.09.2020 08:00:00 8,8 8,8 - 2 1 ENE 0,0
18.09.2020 07:00:00 6,3 6,0 - 2 1 E 0,0
18.09.2020 06:00:00 7,5 7,3 - 2 1 NE 0,0
18.09.2020 05:00:00 7,8 7,5 - 2 1 NNE 0,0
18.09.2020 04:00:00 7,6 7,4 - 4 2 ENE 0,0
18.09.2020 03:00:00 8,6 8,3 - 4 2 NNE -
18.09.2020 02:00:00 8,5 7,8 - 2 1 NNE 0,0
18.09.2020 01:00:00 9,6 8,6 - 2 1 NNE 0,0
18.09.2020 00:00:00 11,1 9,3 - 4 2 NE 0,0
17.09.2020 23:00:00 12,3 8,7 - 2 1 NE 0,0
17.09.2020 22:00:00 13,9 9,3 - 4 2 NE 0,0
17.09.2020 21:00:00 14,5 8,9 - 11 6 ENE 0,0
17.09.2020 20:00:00 15,1 8,5 - 11 6 E 0,0
17.09.2020 19:00:00 17,2 3,6 - 13 7 E 0,0
17.09.2020 18:00:00 18,9 6,6 - 9 5 ENE -
17.09.2020 17:00:00 19,9 6,2 - 13 7 E -
17.09.2020 16:00:00 20,7 10,6 - 11 6 ENE 0,0
17.09.2020 15:00:00 20,9 9,7 - 11 6 ENE 0,0
17.09.2020 14:00:00 20,1 9,8 - 15 8 ENE 0,0
17.09.2020 13:00:00 19,6 10,0 - 16 9 E 0,0
17.09.2020 12:00:00 18,6 10,4 - 15 8 E 0,0
17.09.2020 11:00:00 17,5 11,0 - 11 6 ENE 0,0
17.09.2020 10:00:00 15,9 10,7 17,9 11 6 ENE 0,0
17.09.2020 09:00:00 15,1 11,1 - 8 4 ENE 0,0
17.09.2020 08:00:00 13,4 10,5 - 5 3 NE 0,0
17.09.2020 07:00:00 12,4 10,1 - 4 2 NNE 0,0
17.09.2020 06:00:00 13,0 10,2 - 4 2 NE 0,0
17.09.2020 05:00:00 13,9 10,4 - 5 3 NNE 0,0
17.09.2020 04:00:00 13,9 10,3 - 5 3 NNE 0,0
17.09.2020 03:00:00 14,7 10,8 - 9 5 NE 0,0
17.09.2020 02:00:00 15,3 11,5 - 9 5 NE 0,0
17.09.2020 01:00:00 16,2 12,5 - 9 5 ENE 0,0
17.09.2020 00:00:00 16,7 13,1 - 9 5 NE 0,0
16.09.2020 23:00:00 17,1 13,7 - 8 4 NE 0,0
16.09.2020 22:00:00 18,1 14,1 - 9 5 NE 0,0
16.09.2020 21:00:00 17,9 14,4 - 8 4 N 0,0
16.09.2020 20:00:00 18,9 14,6 - 8 4 N 0,0
16.09.2020 19:00:00 20,6 14,8 - 11 6 N 0,0
16.09.2020 18:00:00 24,1 11,4 - 9 5 ENE 0,0
16.09.2020 17:00:00 25,0 11,5 - 9 5 NE 0,0
16.09.2020 16:00:00 25,3 13,2 - 11 6 ENE 0,0
16.09.2020 15:00:00 25,3 12,4 - 8 4 NE 0,0
16.09.2020 14:00:00 24,3 12,4 - 11 6 ENE 0,0
16.09.2020 13:00:00 24,0 13,7 - 11 6 ENE 0,0
16.09.2020 12:00:00 23,0 14,0 - 8 4 ENE 0,0
16.09.2020 11:00:00 21,2 14,4 - 5 3 NNE 0,0
16.09.2020 10:00:00 20,1 15,2 18,0 4 2 N 0,0
16.09.2020 09:00:00 18,8 15,9 - 4 2 N 0,0
16.09.2020 08:00:00 16,8 15,9 - 4 2 NNW 0,0
16.09.2020 07:00:00 16,7 15,7 - 2 1 N 0,0
16.09.2020 06:00:00 17,1 16,2 - 4 2 S 0,0
16.09.2020 05:00:00 17,4 16,7 - 4 2 N 0,0
16.09.2020 04:00:00 17,2 16,5 - 2 1 N 0,0
16.09.2020 03:00:00 17,5 16,6 - 2 1 WNW 0,0
16.09.2020 02:00:00 17,8 16,6 - 2 1 W 0,0
16.09.2020 01:00:00 18,3 16,7 - 2 1 WSW 0,0
16.09.2020 00:00:00 18,6 16,8 - 4 2 W 0,0
15.09.2020 23:00:00 18,7 16,9 - 4 2 WSW 0,0
15.09.2020 22:00:00 18,8 16,9 - 5 3 SSW 0,0
15.09.2020 21:00:00 19,3 16,9 - 5 3 SSW 0,0
15.09.2020 20:00:00 19,8 16,8 - 4 2 SW 0,0
15.09.2020 19:00:00 21,9 16,8 - 4 2 NNW 0,0
15.09.2020 18:00:00 24,7 17,3 - 4 2 WNW -
15.09.2020 17:00:00 26,6 16,8 - 9 5 WNW 0,0
15.09.2020 16:00:00 28,2 18,2 - 8 4 WSW 0,0
15.09.2020 15:00:00 28,8 17,3 - 4 2 WSW 0,0
15.09.2020 14:00:00 27,0 17,2 - 8 4 W 0,0
15.09.2020 13:00:00 25,5 17,8 - 5 3 WNW 0,0
15.09.2020 12:00:00 24,9 17,6 - 2 1 NNE 0,0
15.09.2020 11:00:00 22,0 17,5 - 4 2 WNW 0,0
15.09.2020 10:00:00 18,7 18,6 17,0 2 1 WSW 0,0
15.09.2020 09:00:00 15,4 15,4 - 2 1 NE 0,0
15.09.2020 08:00:00 14,0 14,0 - 4 2 E 0,0
15.09.2020 07:00:00 11,7 11,6 - 2 1 E 0,0
15.09.2020 06:00:00 11,2 11,1 - 2 1 SW 0,0
15.09.2020 05:00:00 11,5 11,3 - 4 2 SSE 0,0
15.09.2020 04:00:00 12,1 11,8 - 0 0 N 0,0
15.09.2020 03:00:00 12,4 12,0 - 0 0 N 0,0
15.09.2020 02:00:00 14,0 13,7 - 4 2 NE 0,0
15.09.2020 01:00:00 14,1 13,6 - 2 1 NNE 0,0
15.09.2020 00:00:00 14,3 12,7 - 2 1 ENE 0,0
14.09.2020 23:00:00 16,1 14,5 - 5 3 NE 0,0
14.09.2020 22:00:00 15,8 12,8 - 2 1 NE 0,0
14.09.2020 21:00:00 18,0 12,9 - 5 3 E 0,0
14.09.2020 20:00:00 18,7 12,6 - 4 2 ESE 0,0
14.09.2020 19:00:00 22,6 12,3 - 4 2 SE 0,0
14.09.2020 18:00:00 26,3 11,7 - 8 4 SSE 0,0
14.09.2020 17:00:00 27,8 11,3 - 5 3 E 0,0
14.09.2020 16:00:00 28,0 10,9 - 9 5 SE 0,0
14.09.2020 15:00:00 27,5 11,1 - 9 5 ESE 0,0
14.09.2020 14:00:00 27,4 10,9 - 11 6 SE 0,0
14.09.2020 13:00:00 27,0 13,9 - 5 3 ESE 0,0
14.09.2020 12:00:00 23,9 15,2 - 5 3 ENE 0,0
14.09.2020 11:00:00 20,3 16,2 - 4 2 N 0,0
14.09.2020 10:00:00 15,9 15,5 16,5 2 1 NW 0,0
14.09.2020 09:00:00 11,7 11,7 - 2 1 N 0,0
14.09.2020 08:00:00 9,1 9,1 - 4 2 SSW 0,0
14.09.2020 07:00:00 7,3 7,3 - 2 1 SSE 0,0
14.09.2020 06:00:00 7,3 7,2 - 0 0 N 0,0
14.09.2020 05:00:00 7,5 7,4 - 4 2 SSE 0,0
14.09.2020 04:00:00 8,3 8,1 - 4 2 SSE -
14.09.2020 03:00:00 8,8 8,5 - 0 0 N 0,0
14.09.2020 02:00:00 9,2 8,8 - 2 1 E 0,0
14.09.2020 01:00:00 11,0 10,6 - 2 1 E 0,0
14.09.2020 00:00:00 12,0 11,6 - 0 0 N 0,0
13.09.2020 23:00:00 12,7 12,2 - 2 1 S 0,0
13.09.2020 22:00:00 13,8 12,6 - 2 1 SSE 0,0
13.09.2020 21:00:00 15,4 13,4 - 5 3 SSE 0,0
13.09.2020 20:00:00 17,7 13,7 - 8 4 S 0,0
13.09.2020 19:00:00 19,7 14,3 - 8 4 S 0,0
13.09.2020 18:00:00 21,6 14,4 - 13 7 S 0,0
13.09.2020 17:00:00 23,7 14,3 - 8 4 SSW 0,0
13.09.2020 16:00:00 24,2 12,9 - 9 5 WSW 0,0
13.09.2020 15:00:00 24,3 14,0 - 13 7 SW 0,0
13.09.2020 14:00:00 23,4 12,3 - 9 5 W 0,0
13.09.2020 13:00:00 22,9 12,7 - 13 7 SW 0,0
13.09.2020 12:00:00 21,9 13,4 - 13 7 SW 0,0
13.09.2020 11:00:00 20,0 14,0 - 11 6 WSW 0,0
13.09.2020 10:00:00 17,8 13,8 16,5 13 7 SW 0,0
13.09.2020 09:00:00 15,7 14,5 - 11 6 SSW 0,0

tt = Température de l'air
td = dewpoint
tt -20cm = Température de l'air -20cm
ff = Vitesse du vent
dd = Direction du vent
rr = Quantités de précipitations

stations d'obs. à proximité